sensor_id;sensor_type;location;lat;lon;timestamp;P1;durP1;ratioP1;P2;durP2;ratioP2
71166;SDS011;58864;45.928;20.078;2024-02-23T00:01:29;8.23;;;2.80;;
71166;SDS011;58864;45.928;20.078;2024-02-23T00:03:55;8.95;;;3.25;;
71166;SDS011;58864;45.928;20.078;2024-02-23T00:06:22;8.15;;;2.92;;
71166;SDS011;58864;45.928;20.078;2024-02-23T00:08:51;8.98;;;3.22;;
71166;SDS011;58864;45.928;20.078;2024-02-23T00:11:18;8.23;;;3.07;;
71166;SDS011;58864;45.928;20.078;2024-02-23T00:13:44;9.43;;;3.40;;
71166;SDS011;58864;45.928;20.078;2024-02-23T00:16:10;8.00;;;3.40;;
71166;SDS011;58864;45.928;20.078;2024-02-23T00:18:36;9.98;;;3.88;;
71166;SDS011;58864;45.928;20.078;2024-02-23T00:21:02;9.35;;;3.80;;
71166;SDS011;58864;45.928;20.078;2024-02-23T00:23:30;10.50;;;4.17;;
71166;SDS011;58864;45.928;20.078;2024-02-23T00:25:56;11.43;;;4.22;;
71166;SDS011;58864;45.928;20.078;2024-02-23T00:28:22;10.45;;;4.38;;
71166;SDS011;58864;45.928;20.078;2024-02-23T00:30:47;12.02;;;4.30;;
71166;SDS011;58864;45.928;20.078;2024-02-23T00:33:13;10.70;;;4.25;;
71166;SDS011;58864;45.928;20.078;2024-02-23T00:35:39;10.83;;;4.20;;
71166;SDS011;58864;45.928;20.078;2024-02-23T00:38:05;11.43;;;4.90;;
71166;SDS011;58864;45.928;20.078;2024-02-23T00:40:33;12.52;;;4.72;;
71166;SDS011;58864;45.928;20.078;2024-02-23T00:42:59;12.95;;;5.25;;
71166;SDS011;58864;45.928;20.078;2024-02-23T00:45:27;13.32;;;5.03;;
71166;SDS011;58864;45.928;20.078;2024-02-23T00:47:53;13.40;;;5.53;;
71166;SDS011;58864;45.928;20.078;2024-02-23T00:50:19;11.88;;;5.03;;
71166;SDS011;58864;45.928;20.078;2024-02-23T00:52:45;13.32;;;5.70;;
71166;SDS011;58864;45.928;20.078;2024-02-23T00:55:11;13.77;;;5.25;;
71166;SDS011;58864;45.928;20.078;2024-02-23T00:57:38;13.88;;;5.88;;
71166;SDS011;58864;45.928;20.078;2024-02-23T01:00:04;13.40;;;5.33;;
71166;SDS011;58864;45.928;20.078;2024-02-23T01:02:33;14.23;;;5.65;;
71166;SDS011;58864;45.928;20.078;2024-02-23T01:04:59;14.45;;;6.07;;
71166;SDS011;58864;45.928;20.078;2024-02-23T01:07:25;12.90;;;5.60;;
71166;SDS011;58864;45.928;20.078;2024-02-23T01:09:52;14.75;;;5.78;;
71166;SDS011;58864;45.928;20.078;2024-02-23T01:12:17;12.63;;;5.60;;
71166;SDS011;58864;45.928;20.078;2024-02-23T01:14:45;11.73;;;5.70;;
71166;SDS011;58864;45.928;20.078;2024-02-23T01:17:12;12.55;;;5.75;;
71166;SDS011;58864;45.928;20.078;2024-02-23T01:19:38;14.77;;;5.93;;
71166;SDS011;58864;45.928;20.078;2024-02-23T01:22:04;14.73;;;6.00;;
71166;SDS011;58864;45.928;20.078;2024-02-23T01:24:30;12.40;;;5.20;;
71166;SDS011;58864;45.928;20.078;2024-02-23T01:26:56;16.58;;;5.93;;
71166;SDS011;58864;45.928;20.078;2024-02-23T01:29:22;13.82;;;5.70;;
71166;SDS011;58864;45.928;20.078;2024-02-23T01:31:49;12.63;;;5.78;;
71166;SDS011;58864;45.928;20.078;2024-02-23T01:34:15;11.35;;;5.20;;
71166;SDS011;58864;45.928;20.078;2024-02-23T01:36:41;12.07;;;5.23;;
71166;SDS011;58864;45.928;20.078;2024-02-23T01:39:07;12.55;;;5.53;;
71166;SDS011;58864;45.928;20.078;2024-02-23T01:41:33;15.40;;;6.03;;
71166;SDS011;58864;45.928;20.078;2024-02-23T01:43:59;15.18;;;5.13;;
71166;SDS011;58864;45.928;20.078;2024-02-23T01:46:25;10.57;;;5.07;;
71166;SDS011;58864;45.928;20.078;2024-02-23T01:48:53;12.07;;;4.70;;
71166;SDS011;58864;45.928;20.078;2024-02-23T01:51:19;13.35;;;4.90;;
71166;SDS011;58864;45.928;20.078;2024-02-23T01:53:45;12.38;;;4.65;;
71166;SDS011;58864;45.928;20.078;2024-02-23T01:56:10;9.90;;;4.88;;
71166;SDS011;58864;45.928;20.078;2024-02-23T01:58:37;9.50;;;4.53;;
71166;SDS011;58864;45.928;20.078;2024-02-23T02:01:03;9.97;;;4.53;;
71166;SDS011;58864;45.928;20.078;2024-02-23T02:03:29;12.50;;;4.47;;
71166;SDS011;58864;45.928;20.078;2024-02-23T02:05:57;11.50;;;4.88;;
71166;SDS011;58864;45.928;20.078;2024-02-23T02:08:23;11.20;;;4.70;;
71166;SDS011;58864;45.928;20.078;2024-02-23T02:10:49;12.60;;;4.70;;
71166;SDS011;58864;45.928;20.078;2024-02-23T02:13:15;8.87;;;4.10;;
71166;SDS011;58864;45.928;20.078;2024-02-23T02:15:41;12.82;;;4.85;;
71166;SDS011;58864;45.928;20.078;2024-02-23T02:18:08;11.20;;;4.68;;
71166;SDS011;58864;45.928;20.078;2024-02-23T02:20:34;9.57;;;4.20;;
71166;SDS011;58864;45.928;20.078;2024-02-23T02:23:03;11.35;;;5.07;;
71166;SDS011;58864;45.928;20.078;2024-02-23T02:25:31;11.40;;;4.80;;
71166;SDS011;58864;45.928;20.078;2024-02-23T02:27:57;11.07;;;4.80;;
71166;SDS011;58864;45.928;20.078;2024-02-23T02:30:23;11.88;;;5.60;;
71166;SDS011;58864;45.928;20.078;2024-02-23T02:32:49;13.35;;;6.18;;
71166;SDS011;58864;45.928;20.078;2024-02-23T02:35:15;12.63;;;5.45;;
71166;SDS011;58864;45.928;20.078;2024-02-23T02:37:41;13.47;;;5.60;;
71166;SDS011;58864;45.928;20.078;2024-02-23T02:40:08;13.82;;;6.03;;
71166;SDS011;58864;45.928;20.078;2024-02-23T02:42:34;11.00;;;5.18;;
71166;SDS011;58864;45.928;20.078;2024-02-23T02:45:00;11.65;;;5.30;;
71166;SDS011;58864;45.928;20.078;2024-02-23T02:47:28;12.50;;;6.45;;
71166;SDS011;58864;45.928;20.078;2024-02-23T02:49:54;15.07;;;5.77;;
71166;SDS011;58864;45.928;20.078;2024-02-23T02:52:19;13.48;;;5.63;;
71166;SDS011;58864;45.928;20.078;2024-02-23T02:54:47;12.10;;;5.50;;
71166;SDS011;58864;45.928;20.078;2024-02-23T02:57:15;12.40;;;5.72;;
71166;SDS011;58864;45.928;20.078;2024-02-23T02:59:41;14.95;;;5.97;;
71166;SDS011;58864;45.928;20.078;2024-02-23T03:02:08;11.63;;;5.53;;
71166;SDS011;58864;45.928;20.078;2024-02-23T03:04:34;14.65;;;6.00;;
71166;SDS011;58864;45.928;20.078;2024-02-23T03:07:00;12.55;;;5.65;;
71166;SDS011;58864;45.928;20.078;2024-02-23T03:09:26;17.08;;;7.15;;
71166;SDS011;58864;45.928;20.078;2024-02-23T03:11:51;14.10;;;6.43;;
71166;SDS011;58864;45.928;20.078;2024-02-23T03:14:19;15.57;;;7.03;;
71166;SDS011;58864;45.928;20.078;2024-02-23T03:16:45;13.43;;;6.25;;
71166;SDS011;58864;45.928;20.078;2024-02-23T03:19:13;14.82;;;7.22;;
71166;SDS011;58864;45.928;20.078;2024-02-23T03:21:39;15.90;;;7.22;;
71166;SDS011;58864;45.928;20.078;2024-02-23T03:24:06;14.80;;;6.57;;
71166;SDS011;58864;45.928;20.078;2024-02-23T03:26:32;18.47;;;6.70;;
71166;SDS011;58864;45.928;20.078;2024-02-23T03:28:58;15.25;;;6.82;;
71166;SDS011;58864;45.928;20.078;2024-02-23T03:31:25;14.93;;;6.63;;
71166;SDS011;58864;45.928;20.078;2024-02-23T03:33:51;12.57;;;6.00;;
71166;SDS011;58864;45.928;20.078;2024-02-23T03:36:17;15.60;;;6.30;;
71166;SDS011;58864;45.928;20.078;2024-02-23T03:38:43;13.13;;;6.50;;
71166;SDS011;58864;45.928;20.078;2024-02-23T03:41:09;15.93;;;6.53;;
71166;SDS011;58864;45.928;20.078;2024-02-23T03:43:34;13.85;;;6.40;;
71166;SDS011;58864;45.928;20.078;2024-02-23T03:46:02;16.27;;;6.70;;
71166;SDS011;58864;45.928;20.078;2024-02-23T03:48:30;15.00;;;7.03;;
71166;SDS011;58864;45.928;20.078;2024-02-23T03:50:56;17.47;;;7.63;;
71166;SDS011;58864;45.928;20.078;2024-02-23T03:53:22;14.75;;;6.95;;
71166;SDS011;58864;45.928;20.078;2024-02-23T03:55:48;14.73;;;7.30;;
71166;SDS011;58864;45.928;20.078;2024-02-23T03:58:13;16.95;;;7.28;;
71166;SDS011;58864;45.928;20.078;2024-02-23T04:00:39;16.73;;;7.30;;
71166;SDS011;58864;45.928;20.078;2024-02-23T04:03:05;16.33;;;7.27;;
71166;SDS011;58864;45.928;20.078;2024-02-23T04:05:32;15.15;;;7.30;;
71166;SDS011;58864;45.928;20.078;2024-02-23T04:07:58;15.27;;;7.20;;
71166;SDS011;58864;45.928;20.078;2024-02-23T04:10:24;14.02;;;6.80;;
71166;SDS011;58864;45.928;20.078;2024-02-23T04:12:50;16.90;;;7.60;;
71166;SDS011;58864;45.928;20.078;2024-02-23T04:15:16;16.10;;;7.07;;
71166;SDS011;58864;45.928;20.078;2024-02-23T04:17:42;17.25;;;7.40;;
71166;SDS011;58864;45.928;20.078;2024-02-23T04:20:08;15.15;;;6.55;;
71166;SDS011;58864;45.928;20.078;2024-02-23T04:22:36;19.25;;;7.57;;
71166;SDS011;58864;45.928;20.078;2024-02-23T04:25:02;64.30;;;17.95;;
71166;SDS011;58864;45.928;20.078;2024-02-23T04:27:29;44.50;;;15.93;;
71166;SDS011;58864;45.928;20.078;2024-02-23T04:29:54;24.92;;;10.70;;
71166;SDS011;58864;45.928;20.078;2024-02-23T04:32:20;20.17;;;8.57;;
71166;SDS011;58864;45.928;20.078;2024-02-23T04:34:46;16.65;;;7.28;;
71166;SDS011;58864;45.928;20.078;2024-02-23T04:37:12;14.57;;;7.15;;
71166;SDS011;58864;45.928;20.078;2024-02-23T04:39:39;19.13;;;8.10;;
71166;SDS011;58864;45.928;20.078;2024-02-23T04:42:06;16.15;;;7.72;;
71166;SDS011;58864;45.928;20.078;2024-02-23T04:44:32;17.13;;;7.15;;
71166;SDS011;58864;45.928;20.078;2024-02-23T04:46:58;21.38;;;7.85;;
71166;SDS011;58864;45.928;20.078;2024-02-23T04:49:24;25.80;;;10.52;;
71166;SDS011;58864;45.928;20.078;2024-02-23T04:51:50;20.70;;;9.90;;
71166;SDS011;58864;45.928;20.078;2024-02-23T04:54:16;21.80;;;9.15;;
71166;SDS011;58864;45.928;20.078;2024-02-23T04:56:43;16.88;;;8.40;;
71166;SDS011;58864;45.928;20.078;2024-02-23T04:59:09;20.25;;;9.15;;
71166;SDS011;58864;45.928;20.078;2024-02-23T05:01:36;23.58;;;8.70;;
71166;SDS011;58864;45.928;20.078;2024-02-23T05:04:02;14.37;;;6.70;;
71166;SDS011;58864;45.928;20.078;2024-02-23T05:06:28;15.63;;;6.80;;
71166;SDS011;58864;45.928;20.078;2024-02-23T05:08:54;16.92;;;8.00;;
71166;SDS011;58864;45.928;20.078;2024-02-23T05:11:20;17.25;;;7.25;;
71166;SDS011;58864;45.928;20.078;2024-02-23T05:13:47;17.08;;;7.05;;
71166;SDS011;58864;45.928;20.078;2024-02-23T05:16:13;19.27;;;7.30;;
71166;SDS011;58864;45.928;20.078;2024-02-23T05:18:39;16.05;;;7.32;;
71166;SDS011;58864;45.928;20.078;2024-02-23T05:21:05;15.40;;;6.07;;
71166;SDS011;58864;45.928;20.078;2024-02-23T05:23:31;15.40;;;6.97;;
71166;SDS011;58864;45.928;20.078;2024-02-23T05:25:57;16.20;;;6.88;;
71166;SDS011;58864;45.928;20.078;2024-02-23T05:28:23;14.60;;;7.00;;
71166;SDS011;58864;45.928;20.078;2024-02-23T05:30:50;16.83;;;6.88;;
71166;SDS011;58864;45.928;20.078;2024-02-23T05:33:16;15.43;;;7.05;;
71166;SDS011;58864;45.928;20.078;2024-02-23T05:35:44;16.20;;;7.65;;
71166;SDS011;58864;45.928;20.078;2024-02-23T05:38:10;15.25;;;6.78;;
71166;SDS011;58864;45.928;20.078;2024-02-23T05:40:36;14.80;;;6.20;;
71166;SDS011;58864;45.928;20.078;2024-02-23T05:43:02;13.32;;;6.70;;
71166;SDS011;58864;45.928;20.078;2024-02-23T05:45:28;15.00;;;6.72;;
71166;SDS011;58864;45.928;20.078;2024-02-23T05:47:55;13.00;;;6.63;;
71166;SDS011;58864;45.928;20.078;2024-02-23T05:50:21;13.95;;;6.68;;
71166;SDS011;58864;45.928;20.078;2024-02-23T05:52:47;15.00;;;6.50;;
71166;SDS011;58864;45.928;20.078;2024-02-23T05:55:14;18.23;;;8.25;;
71166;SDS011;58864;45.928;20.078;2024-02-23T05:57:40;15.57;;;6.75;;
71166;SDS011;58864;45.928;20.078;2024-02-23T06:00:07;17.45;;;7.28;;
71166;SDS011;58864;45.928;20.078;2024-02-23T06:02:33;15.45;;;6.47;;
71166;SDS011;58864;45.928;20.078;2024-02-23T06:05:00;17.20;;;7.60;;
71166;SDS011;58864;45.928;20.078;2024-02-23T06:07:28;33.75;;;11.60;;
71166;SDS011;58864;45.928;20.078;2024-02-23T06:09:54;36.17;;;11.45;;
71166;SDS011;58864;45.928;20.078;2024-02-23T06:12:20;43.78;;;14.27;;
71166;SDS011;58864;45.928;20.078;2024-02-23T06:14:48;31.00;;;12.68;;
71166;SDS011;58864;45.928;20.078;2024-02-23T06:17:14;28.03;;;11.07;;
71166;SDS011;58864;45.928;20.078;2024-02-23T06:19:40;37.55;;;14.52;;
71166;SDS011;58864;45.928;20.078;2024-02-23T06:22:07;26.73;;;11.13;;
71166;SDS011;58864;45.928;20.078;2024-02-23T06:24:34;19.50;;;8.90;;
71166;SDS011;58864;45.928;20.078;2024-02-23T06:27:00;19.45;;;9.02;;
71166;SDS011;58864;45.928;20.078;2024-02-23T06:29:27;18.50;;;8.47;;
71166;SDS011;58864;45.928;20.078;2024-02-23T06:31:53;17.55;;;9.27;;
71166;SDS011;58864;45.928;20.078;2024-02-23T06:34:19;20.15;;;9.30;;
71166;SDS011;58864;45.928;20.078;2024-02-23T06:36:44;16.90;;;8.25;;
71166;SDS011;58864;45.928;20.078;2024-02-23T06:39:15;17.35;;;7.68;;
71166;SDS011;58864;45.928;20.078;2024-02-23T06:41:42;17.67;;;7.97;;
71166;SDS011;58864;45.928;20.078;2024-02-23T06:44:08;18.15;;;8.10;;
71166;SDS011;58864;45.928;20.078;2024-02-23T06:46:34;16.75;;;7.35;;
71166;SDS011;58864;45.928;20.078;2024-02-23T06:48:58;15.73;;;6.60;;
71166;SDS011;58864;45.928;20.078;2024-02-23T06:51:24;14.43;;;6.77;;
71166;SDS011;58864;45.928;20.078;2024-02-23T06:53:50;14.63;;;7.03;;
71166;SDS011;58864;45.928;20.078;2024-02-23T06:56:18;13.98;;;6.65;;
71166;SDS011;58864;45.928;20.078;2024-02-23T06:58:43;18.90;;;7.60;;
71166;SDS011;58864;45.928;20.078;2024-02-23T07:01:09;18.23;;;7.97;;
71166;SDS011;58864;45.928;20.078;2024-02-23T07:03:37;20.43;;;8.43;;
71166;SDS011;58864;45.928;20.078;2024-02-23T07:06:04;26.10;;;10.68;;
71166;SDS011;58864;45.928;20.078;2024-02-23T07:08:30;32.78;;;10.93;;
71166;SDS011;58864;45.928;20.078;2024-02-23T07:10:56;25.90;;;10.20;;
71166;SDS011;58864;45.928;20.078;2024-02-23T07:13:23;24.85;;;9.80;;
71166;SDS011;58864;45.928;20.078;2024-02-23T07:15:49;15.23;;;7.50;;
71166;SDS011;58864;45.928;20.078;2024-02-23T07:18:15;16.25;;;6.30;;
71166;SDS011;58864;45.928;20.078;2024-02-23T07:20:41;14.23;;;5.88;;
71166;SDS011;58864;45.928;20.078;2024-02-23T07:23:06;13.80;;;6.05;;
71166;SDS011;58864;45.928;20.078;2024-02-23T07:25:33;15.68;;;6.47;;
71166;SDS011;58864;45.928;20.078;2024-02-23T07:27:59;17.60;;;6.80;;
71166;SDS011;58864;45.928;20.078;2024-02-23T07:30:26;15.75;;;6.47;;
71166;SDS011;58864;45.928;20.078;2024-02-23T07:32:52;12.93;;;5.80;;
71166;SDS011;58864;45.928;20.078;2024-02-23T07:35:18;13.73;;;6.25;;
71166;SDS011;58864;45.928;20.078;2024-02-23T07:37:43;26.60;;;7.85;;
71166;SDS011;58864;45.928;20.078;2024-02-23T07:40:10;19.27;;;7.70;;
71166;SDS011;58864;45.928;20.078;2024-02-23T07:42:37;18.48;;;7.93;;
71166;SDS011;58864;45.928;20.078;2024-02-23T07:45:02;15.63;;;6.43;;
71166;SDS011;58864;45.928;20.078;2024-02-23T07:47:31;15.65;;;6.30;;
71166;SDS011;58864;45.928;20.078;2024-02-23T07:49:57;16.50;;;6.53;;
71166;SDS011;58864;45.928;20.078;2024-02-23T07:52:23;15.27;;;6.77;;
71166;SDS011;58864;45.928;20.078;2024-02-23T07:54:49;15.45;;;7.60;;
71166;SDS011;58864;45.928;20.078;2024-02-23T07:57:15;24.40;;;10.70;;
71166;SDS011;58864;45.928;20.078;2024-02-23T07:59:41;20.08;;;8.40;;
71166;SDS011;58864;45.928;20.078;2024-02-23T08:02:07;14.95;;;7.40;;
71166;SDS011;58864;45.928;20.078;2024-02-23T08:04:34;14.77;;;7.23;;
71166;SDS011;58864;45.928;20.078;2024-02-23T08:07:02;13.90;;;6.47;;
71166;SDS011;58864;45.928;20.078;2024-02-23T08:09:28;16.05;;;6.75;;
71166;SDS011;58864;45.928;20.078;2024-02-23T08:11:54;12.23;;;6.60;;
71166;SDS011;58864;45.928;20.078;2024-02-23T08:14:19;14.32;;;7.18;;
71166;SDS011;58864;45.928;20.078;2024-02-23T08:16:45;15.47;;;7.23;;
71166;SDS011;58864;45.928;20.078;2024-02-23T08:19:11;13.45;;;6.45;;
71166;SDS011;58864;45.928;20.078;2024-02-23T08:21:38;16.25;;;6.93;;
71166;SDS011;58864;45.928;20.078;2024-02-23T08:24:05;13.73;;;6.05;;
71166;SDS011;58864;45.928;20.078;2024-02-23T08:26:31;19.48;;;6.72;;
71166;SDS011;58864;45.928;20.078;2024-02-23T08:28:58;20.27;;;7.83;;
71166;SDS011;58864;45.928;20.078;2024-02-23T08:31:23;16.85;;;7.15;;
71166;SDS011;58864;45.928;20.078;2024-02-23T08:33:50;17.35;;;8.05;;
71166;SDS011;58864;45.928;20.078;2024-02-23T08:36:16;19.92;;;8.32;;
71166;SDS011;58864;45.928;20.078;2024-02-23T08:38:43;16.98;;;7.88;;
71166;SDS011;58864;45.928;20.078;2024-02-23T08:41:09;19.53;;;7.57;;
71166;SDS011;58864;45.928;20.078;2024-02-23T08:43:35;18.33;;;7.85;;
71166;SDS011;58864;45.928;20.078;2024-02-23T08:46:01;26.73;;;13.00;;
71166;SDS011;58864;45.928;20.078;2024-02-23T08:48:27;20.73;;;8.40;;
71166;SDS011;58864;45.928;20.078;2024-02-23T08:50:53;15.98;;;7.68;;
71166;SDS011;58864;45.928;20.078;2024-02-23T08:53:19;16.00;;;7.50;;
71166;SDS011;58864;45.928;20.078;2024-02-23T08:55:46;18.95;;;7.75;;
71166;SDS011;58864;45.928;20.078;2024-02-23T08:58:12;14.60;;;6.88;;
71166;SDS011;58864;45.928;20.078;2024-02-23T09:00:38;16.33;;;6.88;;
71166;SDS011;58864;45.928;20.078;2024-02-23T09:03:04;19.50;;;7.45;;
71166;SDS011;58864;45.928;20.078;2024-02-23T09:05:30;18.70;;;7.27;;
71166;SDS011;58864;45.928;20.078;2024-02-23T09:07:57;22.15;;;6.10;;
71166;SDS011;58864;45.928;20.078;2024-02-23T09:10:23;16.10;;;7.00;;
71166;SDS011;58864;45.928;20.078;2024-02-23T09:12:50;13.73;;;6.32;;
71166;SDS011;58864;45.928;20.078;2024-02-23T09:15:16;13.95;;;6.30;;
71166;SDS011;58864;45.928;20.078;2024-02-23T09:17:42;11.50;;;5.60;;
71166;SDS011;58864;45.928;20.078;2024-02-23T09:20:08;14.82;;;6.03;;
71166;SDS011;58864;45.928;20.078;2024-02-23T09:22:35;13.55;;;5.88;;
71166;SDS011;58864;45.928;20.078;2024-02-23T09:25:01;13.60;;;6.20;;
71166;SDS011;58864;45.928;20.078;2024-02-23T09:27:29;25.58;;;6.43;;
71166;SDS011;58864;45.928;20.078;2024-02-23T09:29:56;18.73;;;6.93;;
71166;SDS011;58864;45.928;20.078;2024-02-23T09:32:23;12.45;;;6.13;;
71166;SDS011;58864;45.928;20.078;2024-02-23T09:34:48;14.77;;;6.22;;
71166;SDS011;58864;45.928;20.078;2024-02-23T09:37:14;14.95;;;6.55;;
71166;SDS011;58864;45.928;20.078;2024-02-23T09:39:40;23.90;;;9.73;;
71166;SDS011;58864;45.928;20.078;2024-02-23T09:42:06;19.77;;;9.00;;
71166;SDS011;58864;45.928;20.078;2024-02-23T09:44:34;17.40;;;7.60;;
71166;SDS011;58864;45.928;20.078;2024-02-23T09:47:02;21.75;;;8.77;;
71166;SDS011;58864;45.928;20.078;2024-02-23T09:49:32;20.25;;;8.68;;
71166;SDS011;58864;45.928;20.078;2024-02-23T09:51:58;16.65;;;8.45;;
71166;SDS011;58864;45.928;20.078;2024-02-23T09:54:24;26.27;;;9.07;;
71166;SDS011;58864;45.928;20.078;2024-02-23T09:56:51;16.95;;;7.93;;
71166;SDS011;58864;45.928;20.078;2024-02-23T09:59:31;12.35;;;6.28;;
71166;SDS011;58864;45.928;20.078;2024-02-23T10:01:59;16.45;;;7.68;;
71166;SDS011;58864;45.928;20.078;2024-02-23T10:04:28;20.65;;;9.10;;
71166;SDS011;58864;45.928;20.078;2024-02-23T10:06:53;17.10;;;8.90;;
71166;SDS011;58864;45.928;20.078;2024-02-23T10:09:19;16.92;;;8.52;;
71166;SDS011;58864;45.928;20.078;2024-02-23T10:11:45;18.73;;;6.70;;
71166;SDS011;58864;45.928;20.078;2024-02-23T10:14:17;14.55;;;6.68;;
71166;SDS011;58864;45.928;20.078;2024-02-23T10:16:43;14.20;;;6.07;;
71166;SDS011;58864;45.928;20.078;2024-02-23T10:19:09;17.17;;;6.53;;
71166;SDS011;58864;45.928;20.078;2024-02-23T10:21:36;14.55;;;5.95;;
71166;SDS011;58864;45.928;20.078;2024-02-23T10:24:02;27.15;;;8.55;;
71166;SDS011;58864;45.928;20.078;2024-02-23T10:26:30;44.55;;;12.70;;
71166;SDS011;58864;45.928;20.078;2024-02-23T10:28:56;28.20;;;9.95;;
71166;SDS011;58864;45.928;20.078;2024-02-23T10:31:22;24.73;;;8.37;;
71166;SDS011;58864;45.928;20.078;2024-02-23T10:33:49;16.60;;;7.28;;
71166;SDS011;58864;45.928;20.078;2024-02-23T10:36:17;13.68;;;6.28;;
71166;SDS011;58864;45.928;20.078;2024-02-23T10:38:45;15.85;;;6.72;;
71166;SDS011;58864;45.928;20.078;2024-02-23T10:41:12;15.23;;;6.00;;
71166;SDS011;58864;45.928;20.078;2024-02-23T10:43:40;13.93;;;6.40;;
71166;SDS011;58864;45.928;20.078;2024-02-23T10:46:07;16.25;;;6.45;;
71166;SDS011;58864;45.928;20.078;2024-02-23T10:48:37;22.15;;;7.53;;
71166;SDS011;58864;45.928;20.078;2024-02-23T10:51:03;17.75;;;7.18;;
71166;SDS011;58864;45.928;20.078;2024-02-23T10:53:31;14.52;;;6.88;;
71166;SDS011;58864;45.928;20.078;2024-02-23T10:55:58;16.00;;;6.93;;
71166;SDS011;58864;45.928;20.078;2024-02-23T10:58:25;15.10;;;6.80;;
71166;SDS011;58864;45.928;20.078;2024-02-23T11:00:51;15.40;;;7.00;;
71166;SDS011;58864;45.928;20.078;2024-02-23T11:03:17;23.73;;;8.48;;
71166;SDS011;58864;45.928;20.078;2024-02-23T11:05:43;18.48;;;8.07;;
71166;SDS011;58864;45.928;20.078;2024-02-23T11:08:12;18.63;;;8.47;;
71166;SDS011;58864;45.928;20.078;2024-02-23T11:10:42;24.42;;;9.10;;
71166;SDS011;58864;45.928;20.078;2024-02-23T11:13:10;17.65;;;7.32;;
71166;SDS011;58864;45.928;20.078;2024-02-23T11:15:35;19.13;;;8.10;;
71166;SDS011;58864;45.928;20.078;2024-02-23T11:18:20;16.00;;;7.00;;
71166;SDS011;58864;45.928;20.078;2024-02-23T11:20:53;17.37;;;6.37;;
71166;SDS011;58864;45.928;20.078;2024-02-23T11:23:19;17.20;;;7.07;;
71166;SDS011;58864;45.928;20.078;2024-02-23T11:25:58;18.20;;;7.60;;
71166;SDS011;58864;45.928;20.078;2024-02-23T11:28:26;18.30;;;7.05;;
71166;SDS011;58864;45.928;20.078;2024-02-23T11:30:52;17.00;;;7.10;;
71166;SDS011;58864;45.928;20.078;2024-02-23T11:33:25;18.43;;;7.57;;
71166;SDS011;58864;45.928;20.078;2024-02-23T11:35:51;17.80;;;7.40;;
71166;SDS011;58864;45.928;20.078;2024-02-23T11:38:18;17.70;;;7.88;;
71166;SDS011;58864;45.928;20.078;2024-02-23T11:40:45;23.15;;;8.75;;
71166;SDS011;58864;45.928;20.078;2024-02-23T11:43:11;19.30;;;8.68;;
71166;SDS011;58864;45.928;20.078;2024-02-23T11:45:39;22.77;;;10.40;;
71166;SDS011;58864;45.928;20.078;2024-02-23T11:48:06;23.08;;;9.55;;
71166;SDS011;58864;45.928;20.078;2024-02-23T11:50:33;18.00;;;8.70;;
71166;SDS011;58864;45.928;20.078;2024-02-23T11:52:59;20.60;;;8.25;;
71166;SDS011;58864;45.928;20.078;2024-02-23T11:55:26;18.08;;;9.32;;
71166;SDS011;58864;45.928;20.078;2024-02-23T11:57:52;17.60;;;8.47;;
71166;SDS011;58864;45.928;20.078;2024-02-23T12:00:18;22.88;;;8.50;;
71166;SDS011;58864;45.928;20.078;2024-02-23T12:02:46;22.23;;;8.48;;
71166;SDS011;58864;45.928;20.078;2024-02-23T12:05:14;23.05;;;7.93;;
71166;SDS011;58864;45.928;20.078;2024-02-23T12:07:40;25.98;;;9.68;;
71166;SDS011;58864;45.928;20.078;2024-02-23T12:10:06;19.40;;;8.10;;
71166;SDS011;58864;45.928;20.078;2024-02-23T12:12:32;18.63;;;7.80;;
71166;SDS011;58864;45.928;20.078;2024-02-23T12:14:58;19.83;;;8.20;;
71166;SDS011;58864;45.928;20.078;2024-02-23T12:17:24;28.20;;;10.13;;
71166;SDS011;58864;45.928;20.078;2024-02-23T12:19:58;18.52;;;7.20;;
71166;SDS011;58864;45.928;20.078;2024-02-23T12:22:24;17.47;;;6.20;;
71166;SDS011;58864;45.928;20.078;2024-02-23T12:24:50;14.18;;;5.90;;
71166;SDS011;58864;45.928;20.078;2024-02-23T12:27:16;18.92;;;6.30;;
71166;SDS011;58864;45.928;20.078;2024-02-23T12:29:42;11.40;;;5.50;;
71166;SDS011;58864;45.928;20.078;2024-02-23T12:32:19;14.07;;;5.80;;
71166;SDS011;58864;45.928;20.078;2024-02-23T12:34:45;12.43;;;5.73;;
71166;SDS011;58864;45.928;20.078;2024-02-23T12:37:12;12.68;;;5.93;;
71166;SDS011;58864;45.928;20.078;2024-02-23T12:39:40;15.38;;;6.22;;
71166;SDS011;58864;45.928;20.078;2024-02-23T12:42:06;18.50;;;7.18;;
71166;SDS011;58864;45.928;20.078;2024-02-23T12:44:32;18.02;;;7.47;;
71166;SDS011;58864;45.928;20.078;2024-02-23T12:46:57;16.27;;;7.13;;
71166;SDS011;58864;45.928;20.078;2024-02-23T12:49:23;19.15;;;8.30;;
71166;SDS011;58864;45.928;20.078;2024-02-23T12:51:49;21.33;;;8.88;;
71166;SDS011;58864;45.928;20.078;2024-02-23T12:54:17;18.20;;;8.85;;
71166;SDS011;58864;45.928;20.078;2024-02-23T12:56:43;17.75;;;7.97;;
71166;SDS011;58864;45.928;20.078;2024-02-23T12:59:09;16.53;;;7.00;;
71166;SDS011;58864;45.928;20.078;2024-02-23T13:01:34;28.58;;;11.00;;
71166;SDS011;58864;45.928;20.078;2024-02-23T13:04:01;22.50;;;9.95;;
71166;SDS011;58864;45.928;20.078;2024-02-23T13:06:27;24.25;;;9.52;;
71166;SDS011;58864;45.928;20.078;2024-02-23T13:08:53;29.17;;;12.60;;
71166;SDS011;58864;45.928;20.078;2024-02-23T13:11:20;29.37;;;12.37;;
71166;SDS011;58864;45.928;20.078;2024-02-23T13:13:46;17.80;;;8.80;;
71166;SDS011;58864;45.928;20.078;2024-02-23T13:16:12;27.52;;;8.25;;
71166;SDS011;58864;45.928;20.078;2024-02-23T13:18:39;15.98;;;6.78;;
71166;SDS011;58864;45.928;20.078;2024-02-23T13:21:05;16.80;;;7.75;;
71166;SDS011;58864;45.928;20.078;2024-02-23T13:23:31;14.20;;;6.63;;
71166;SDS011;58864;45.928;20.078;2024-02-23T13:25:56;15.15;;;7.03;;
71166;SDS011;58864;45.928;20.078;2024-02-23T13:28:24;17.00;;;7.07;;
71166;SDS011;58864;45.928;20.078;2024-02-23T13:30:49;18.33;;;6.95;;
71166;SDS011;58864;45.928;20.078;2024-02-23T13:33:15;15.35;;;6.70;;
71166;SDS011;58864;45.928;20.078;2024-02-23T13:35:43;16.47;;;6.87;;
71166;SDS011;58864;45.928;20.078;2024-02-23T13:38:09;14.93;;;7.88;;
71166;SDS011;58864;45.928;20.078;2024-02-23T13:40:35;20.90;;;8.02;;
71166;SDS011;58864;45.928;20.078;2024-02-23T13:43:00;17.73;;;7.55;;
71166;SDS011;58864;45.928;20.078;2024-02-23T13:45:28;20.48;;;10.52;;
71166;SDS011;58864;45.928;20.078;2024-02-23T13:47:57;18.03;;;9.83;;
71166;SDS011;58864;45.928;20.078;2024-02-23T13:50:23;20.83;;;8.73;;
71166;SDS011;58864;45.928;20.078;2024-02-23T13:52:49;18.80;;;8.45;;
71166;SDS011;58864;45.928;20.078;2024-02-23T13:55:15;19.88;;;8.35;;
71166;SDS011;58864;45.928;20.078;2024-02-23T13:57:41;15.18;;;7.22;;
71166;SDS011;58864;45.928;20.078;2024-02-23T14:00:07;13.37;;;6.93;;
71166;SDS011;58864;45.928;20.078;2024-02-23T14:02:38;15.77;;;7.35;;
71166;SDS011;58864;45.928;20.078;2024-02-23T14:05:05;12.02;;;5.93;;
71166;SDS011;58864;45.928;20.078;2024-02-23T14:07:32;19.52;;;7.20;;
71166;SDS011;58864;45.928;20.078;2024-02-23T14:09:58;16.58;;;7.43;;
71166;SDS011;58864;45.928;20.078;2024-02-23T14:12:24;17.73;;;7.30;;
71166;SDS011;58864;45.928;20.078;2024-02-23T14:14:50;24.52;;;9.07;;
71166;SDS011;58864;45.928;20.078;2024-02-23T14:17:16;17.88;;;8.38;;